Grove Municipal Airport


Codes: KGMJ/
Name: Grove Municipal Airport
City: Grove
Country: United States
Elevation: 831 ft.

Photos at Grove Municipal Airport


   Photos courtesy of SpottingLog. You can add your own sightings and photos by signing up for a free trial today.



No photos found.

Weather at Grove Municipal Airport


Time (UTC)DescriptionTempratureWindCloud coverageVisibilityPressureHumidity
15-Apr-2024 18:00Scattered Clouds25°C16 mph, S47%10000m1011hPa70%
15-Apr-2024 21:00Broken Clouds25°C16 mph, S73%10000m1009hPa70%
16-Apr-2024 00:00Overcast Clouds22°C18 mph, S100%10000m1009hPa80%
16-Apr-2024 03:00Overcast Clouds22°C20 mph, S100%10000m1007hPa74%
16-Apr-2024 06:00Overcast Clouds21°C20 mph, S100%10000m1006hPa80%
16-Apr-2024 09:00Scattered Clouds20°C20 mph, S45%10000m1005hPa86%
16-Apr-2024 12:00Light Rain19°C22 mph, S63%10000m1004hPa88%
16-Apr-2024 15:00Light Rain19°C22 mph, S97%10000m1004hPa90%
16-Apr-2024 18:00Light Rain25°C25 mph, SW81%10000m1002hPa55%
16-Apr-2024 21:00Clear Sky25°C20 mph, SW0%10000m1002hPa39%
17-Apr-2024 00:00Clear Sky22°C18 mph, SW0%10000m1003hPa45%
17-Apr-2024 03:00Clear Sky21°C20 mph, S1%10000m1004hPa40%
17-Apr-2024 06:00Clear Sky19°C16 mph, SW1%10000m1006hPa47%
17-Apr-2024 09:00Clear Sky15°C9 mph, SW0%10000m1008hPa67%
17-Apr-2024 12:00Clear Sky13°C9 mph, SW0%10000m1011hPa75%
17-Apr-2024 15:00Clear Sky18°C9 mph, NW0%10000m1012hPa59%
17-Apr-2024 18:00Clear Sky22°C11 mph, NW0%10000m1013hPa50%
17-Apr-2024 21:00Clear Sky24°C7 mph, NW0%10000m1011hPa45%
18-Apr-2024 00:00Clear Sky22°C4 mph, N0%10000m1012hPa61%
18-Apr-2024 03:00Clear Sky16°C7 mph, E0%10000m1014hPa69%
18-Apr-2024 06:00Clear Sky15°C7 mph, E0%10000m1014hPa75%
18-Apr-2024 09:00Clear Sky14°C11 mph, SE0%10000m1012hPa79%
18-Apr-2024 12:00Clear Sky15°C11 mph, SE6%10000m1012hPa75%
18-Apr-2024 15:00Light Rain23°C13 mph, S0%10000m1011hPa77%
18-Apr-2024 18:00Light Rain26°C13 mph, S38%10000m1010hPa70%
18-Apr-2024 21:00Light Rain30°C9 mph, SW83%10000m1007hPa52%
19-Apr-2024 00:00Moderate Rain15°C25 mph, N74%10000m1010hPa92%
19-Apr-2024 03:00Overcast Clouds11°C20 mph, NE98%10000m1017hPa88%
19-Apr-2024 06:00Overcast Clouds11°C16 mph, NE98%10000m1019hPa87%
19-Apr-2024 09:00Overcast Clouds9°C16 mph, NE99%10000m1019hPa87%
19-Apr-2024 12:00Overcast Clouds8°C13 mph, NE94%10000m1022hPa87%
19-Apr-2024 15:00Overcast Clouds12°C18 mph, NE100%10000m1023hPa63%
19-Apr-2024 18:00Overcast Clouds16°C16 mph, NE100%10000m1021hPa52%
19-Apr-2024 21:00Overcast Clouds17°C13 mph, NE100%10000m1020hPa49%
20-Apr-2024 00:00Overcast Clouds15°C11 mph, NE90%10000m1020hPa58%
20-Apr-2024 03:00Overcast Clouds11°C11 mph, NE94%10000m1022hPa61%
20-Apr-2024 06:00Overcast Clouds11°C11 mph, NE96%10000m1023hPa54%
20-Apr-2024 09:00Overcast Clouds11°C11 mph, NE100%10000m1024hPa50%
20-Apr-2024 12:00Overcast Clouds10°C11 mph, NE100%10000m1025hPa50%
20-Apr-2024 15:00Overcast Clouds11°C13 mph, NE100%10000m1025hPa52%